createdAt,value
2019-02-18T00:02:25.227Z,22.67
2019-02-18T00:06:30.650Z,22.80
2019-02-18T00:10:36.437Z,19.43
2019-02-18T00:14:42.256Z,24.00
2019-02-18T00:18:47.713Z,18.10
2019-02-18T00:22:53.532Z,19.73
2019-02-18T00:26:58.907Z,21.47
2019-02-18T00:31:04.269Z,19.70
2019-02-18T00:35:09.695Z,19.90
2019-02-18T00:39:15.227Z,19.20
2019-02-18T00:43:20.611Z,22.60
2019-02-18T00:47:26.070Z,20.07
2019-02-18T00:51:31.333Z,21.33
2019-02-18T00:55:36.764Z,21.00
2019-02-18T00:59:42.189Z,23.23
2019-02-18T01:03:47.643Z,18.40
2019-02-18T01:07:53.047Z,22.40
2019-02-18T01:11:58.929Z,22.67
2019-02-18T01:16:04.366Z,22.90
2019-02-18T01:20:11.155Z,21.30
2019-02-18T01:24:16.524Z,22.63
2019-02-18T01:28:21.988Z,18.43
2019-02-18T01:32:27.333Z,20.43
2019-02-18T01:36:32.717Z,23.67
2019-02-18T01:40:38.091Z,25.40
2019-02-18T01:44:43.480Z,20.60
2019-02-18T01:48:48.868Z,26.47
2019-02-18T01:52:54.203Z,21.27
2019-02-18T01:57:00.273Z,20.63
2019-02-18T02:01:07.613Z,23.00
2019-02-18T02:05:14.953Z,20.27
2019-02-18T02:09:20.381Z,21.00
2019-02-18T02:13:37.211Z,23.80
2019-02-18T02:17:42.626Z,23.23
2019-02-18T02:21:48.006Z,23.47
2019-02-18T02:25:53.339Z,22.03
2019-02-18T02:29:59.162Z,22.83
2019-02-18T02:34:04.591Z,22.83
2019-02-18T02:38:10.020Z,21.07
2019-02-18T02:42:15.729Z,21.70
2019-02-18T02:46:21.058Z,21.17
2019-02-18T02:50:26.501Z,22.60
2019-02-18T02:54:32.019Z,21.67
2019-02-18T02:58:37.461Z,23.10
2019-02-18T03:02:42.944Z,22.63
2019-02-18T03:06:48.373Z,23.17
2019-02-18T03:10:53.977Z,23.70
2019-02-18T03:14:59.332Z,20.33
2019-02-18T03:19:04.673Z,22.90
2019-02-18T03:23:10.048Z,25.80
2019-02-18T03:27:15.403Z,22.00
2019-02-18T03:31:25.745Z,25.67
2019-02-18T03:35:31.180Z,18.73
2019-02-18T03:39:36.387Z,22.10
2019-02-18T03:43:42.002Z,22.60
2019-02-18T03:47:47.445Z,23.63
2019-02-18T03:51:53.077Z,21.97
2019-02-18T03:55:58.618Z,23.77
2019-02-18T04:00:04.855Z,23.37
2019-02-18T04:04:10.340Z,21.77
2019-02-18T04:08:16.245Z,19.40
2019-02-18T04:12:21.595Z,28.00
2019-02-18T04:16:27.324Z,22.60
2019-02-18T04:20:32.984Z,22.47
2019-02-18T04:24:38.779Z,22.30
2019-02-18T04:28:44.123Z,24.07
2019-02-18T04:32:49.513Z,21.73
2019-02-18T04:36:54.798Z,21.67
2019-02-18T04:41:00.849Z,23.90
2019-02-18T04:45:07.052Z,19.67
2019-02-18T04:49:12.643Z,23.87
2019-02-18T04:53:17.991Z,27.80
2019-02-18T04:57:23.381Z,23.17
2019-02-18T05:01:28.807Z,25.67
2019-02-18T05:05:34.088Z,29.40
2019-02-18T05:09:40.210Z,28.97
2019-02-18T05:14:04.930Z,28.33
2019-02-18T05:18:10.281Z,27.60
2019-02-18T05:22:15.710Z,24.33
2019-02-18T05:26:21.151Z,27.97
2019-02-18T05:30:26.459Z,25.17
2019-02-18T05:34:31.645Z,24.57
2019-02-18T05:38:36.896Z,26.10
2019-02-18T05:42:42.337Z,26.20
2019-02-18T05:46:47.600Z,24.03
2019-02-18T05:50:52.939Z,30.50
2019-02-18T05:54:58.217Z,21.47
2019-02-18T05:59:03.622Z,22.30
2019-02-18T06:03:09.053Z,24.67
2019-02-18T06:07:14.831Z,23.37
2019-02-18T06:11:20.345Z,27.30
2019-02-18T06:15:25.588Z,27.37
2019-02-18T06:19:31.389Z,28.53
2019-02-18T06:23:36.953Z,25.20
2019-02-18T06:27:42.308Z,24.63
2019-02-18T06:31:47.474Z,23.20
2019-02-18T06:35:53.368Z,23.40
2019-02-18T06:39:58.735Z,24.60
2019-02-18T06:44:04.090Z,27.77
2019-02-18T06:48:23.497Z,27.23
2019-02-18T06:52:29.150Z,21.90
2019-02-18T06:57:02.762Z,20.83
2019-02-18T07:01:19.008Z,25.63
2019-02-18T07:05:33.607Z,23.67
2019-02-18T07:09:51.708Z,21.57
2019-02-18T07:13:57.198Z,23.27
2019-02-18T07:18:02.622Z,21.47
2019-02-18T07:22:08.434Z,23.47
2019-02-18T07:26:13.831Z,21.67
2019-02-18T07:30:19.765Z,24.37
2019-02-18T07:34:25.534Z,26.30
2019-02-18T07:38:31.071Z,24.83
2019-02-18T07:42:36.337Z,22.00
2019-02-18T07:46:42.312Z,25.87
2019-02-18T07:50:47.727Z,20.83
2019-02-18T07:54:53.399Z,24.83
2019-02-18T07:58:58.752Z,20.07
2019-02-18T08:03:04.033Z,23.37
2019-02-18T08:07:09.638Z,19.73
2019-02-18T08:11:14.940Z,22.73
2019-02-18T08:15:20.381Z,21.30
2019-02-18T08:19:25.744Z,27.27
2019-02-18T08:23:31.098Z,22.37
2019-02-18T08:27:36.768Z,20.23
2019-02-18T08:31:42.204Z,20.67
2019-02-18T08:35:47.562Z,20.90
2019-02-18T08:39:52.922Z,24.10
2019-02-18T08:43:58.315Z,21.87
2019-02-18T08:48:04.181Z,19.47
2019-02-18T08:52:09.814Z,23.80
2019-02-18T08:56:15.269Z,20.37
2019-02-18T09:00:21.168Z,15.17
2019-02-18T09:04:28.155Z,19.10
2019-02-18T09:08:34.066Z,18.23
2019-02-18T09:12:39.974Z,21.03
2019-02-18T09:16:45.327Z,18.27
2019-02-18T09:20:50.652Z,21.00
2019-02-18T09:25:07.564Z,19.47
2019-02-18T09:29:12.983Z,16.37
2019-02-18T09:33:18.346Z,23.87
2019-02-18T09:37:24.074Z,18.50
2019-02-18T09:41:29.571Z,19.43
2019-02-18T09:45:35.076Z,17.80
2019-02-18T09:49:40.732Z,19.77
2019-02-18T09:53:46.004Z,19.73
2019-02-18T09:57:51.727Z,21.67
2019-02-18T10:01:57.105Z,21.03
2019-02-18T10:06:02.612Z,20.40
2019-02-18T10:10:08.380Z,17.93
2019-02-18T10:14:13.792Z,28.57
2019-02-18T10:18:19.223Z,15.87
2019-02-18T10:22:24.573Z,19.03
2019-02-18T10:26:30.021Z,16.13
2019-02-18T10:30:35.297Z,15.83
2019-02-18T10:34:40.831Z,21.50
2019-02-18T10:38:46.187Z,20.10
2019-02-18T10:42:51.633Z,18.27
2019-02-18T10:46:57.096Z,21.03
2019-02-18T10:51:02.850Z,19.27
2019-02-18T10:55:08.968Z,18.47
2019-02-18T10:59:14.793Z,20.17
2019-02-18T11:03:20.672Z,19.70
2019-02-18T11:07:26.137Z,20.57
2019-02-18T11:11:31.551Z,18.63
2019-02-18T11:15:36.919Z,18.20
2019-02-18T11:19:42.347Z,22.90
2019-02-18T11:23:47.737Z,20.60
2019-02-18T11:27:53.107Z,20.40
2019-02-18T11:32:00.429Z,19.63
2019-02-18T11:36:05.881Z,17.73
2019-02-18T11:40:13.945Z,18.70
2019-02-18T11:44:19.655Z,19.83
2019-02-18T11:48:25.003Z,24.23
2019-02-18T11:52:30.725Z,19.83
2019-02-18T11:56:36.518Z,15.53
2019-02-18T12:00:42.042Z,17.40
2019-02-18T12:04:47.410Z,16.80
2019-02-18T12:08:52.836Z,17.77
2019-02-18T12:12:58.651Z,19.30
2019-02-18T12:17:04.081Z,15.10
2019-02-18T12:21:09.545Z,11.80
2019-02-18T12:25:15.113Z,15.50
2019-02-18T12:29:26.133Z,13.57
2019-02-18T12:33:28.616Z,11.17
2019-02-18T12:37:34.376Z,13.35
2019-02-18T12:41:48.324Z,13.22
2019-02-18T12:45:47.032Z,12.83
2019-02-18T12:49:52.913Z,10.57
2019-02-18T12:54:04.936Z,12.10
2019-02-18T12:58:06.105Z,10.60
2019-02-18T13:02:11.546Z,12.95
2019-02-18T13:06:17.004Z,12.60
2019-02-18T13:10:22.507Z,12.80
2019-02-18T13:14:27.942Z,12.03
2019-02-18T13:18:33.370Z,10.70
2019-02-18T13:22:38.823Z,13.60
2019-02-18T13:26:44.274Z,11.73
2019-02-18T13:30:49.640Z,11.88
2019-02-18T13:34:55.057Z,13.93
2019-02-18T13:39:00.496Z,13.60
2019-02-18T13:43:06.229Z,14.33
2019-02-18T13:47:11.631Z,10.58
2019-02-18T13:51:24.061Z,9.53
2019-02-18T13:55:24.553Z,13.35
2019-02-18T13:59:29.998Z,13.80
2019-02-18T14:03:35.663Z,13.40
2019-02-18T14:07:41.029Z,15.23
2019-02-18T14:11:46.806Z,17.48
2019-02-18T14:15:52.244Z,19.23
2019-02-18T14:19:58.185Z,14.83
2019-02-18T14:24:03.555Z,19.75
2019-02-18T14:28:08.907Z,17.55
2019-02-18T14:32:14.576Z,17.25
2019-02-18T14:36:20.012Z,17.75
2019-02-18T14:40:25.841Z,21.52
2019-02-18T14:44:31.274Z,20.60
2019-02-18T14:48:36.888Z,19.40
2019-02-18T14:52:42.615Z,16.52
2019-02-18T14:56:48.047Z,14.00
2019-02-18T15:00:53.667Z,17.23
2019-02-18T15:04:59.074Z,14.20
2019-02-18T15:09:05.636Z,17.07
2019-02-18T15:13:11.063Z,15.80
2019-02-18T15:17:16.522Z,16.97
2019-02-18T15:21:21.717Z,12.37
2019-02-18T15:25:27.267Z,14.38
2019-02-18T15:29:32.695Z,19.73
2019-02-18T15:33:38.165Z,16.02
2019-02-18T15:37:43.953Z,14.07
2019-02-18T15:41:49.440Z,17.87
2019-02-18T15:45:55.611Z,20.52
2019-02-18T15:50:01.280Z,12.90
2019-02-18T15:54:08.115Z,16.52
2019-02-18T15:58:13.546Z,15.98
2019-02-18T16:02:19.074Z,15.28
2019-02-18T16:06:24.875Z,20.95
2019-02-18T16:10:30.701Z,17.73
2019-02-18T16:14:36.229Z,19.32
2019-02-18T16:18:42.022Z,20.20
2019-02-18T16:22:47.659Z,15.03
2019-02-18T16:26:53.521Z,17.55
2019-02-18T16:30:59.132Z,16.20
2019-02-18T16:35:04.844Z,12.45
2019-02-18T16:39:10.990Z,13.53
2019-02-18T16:43:16.445Z,7.25
2019-02-18T16:47:21.898Z,8.23
2019-02-18T16:51:27.490Z,7.00
2019-02-18T16:55:32.874Z,7.33
2019-02-18T16:59:38.122Z,7.17
2019-02-18T17:03:43.559Z,7.77
2019-02-18T17:07:48.999Z,11.47
2019-02-18T17:11:54.440Z,7.43
2019-02-18T17:15:59.719Z,6.83
2019-02-18T17:20:05.891Z,9.93
2019-02-18T17:24:11.589Z,9.30
2019-02-18T17:28:17.091Z,9.17
2019-02-18T17:32:22.559Z,9.47
2019-02-18T17:36:27.932Z,9.60
2019-02-18T17:40:34.104Z,7.63
2019-02-18T17:44:41.718Z,10.90
2019-02-18T17:48:47.342Z,9.37
2019-02-18T17:52:53.166Z,7.50
2019-02-18T17:56:59.194Z,8.53
2019-02-18T18:01:04.616Z,10.63
2019-02-18T18:05:10.537Z,11.70
2019-02-18T18:09:16.222Z,11.23
2019-02-18T18:13:25.094Z,9.97
2019-02-18T18:17:29.181Z,11.20
2019-02-18T18:21:35.197Z,11.63
2019-02-18T18:25:40.904Z,8.80
2019-02-18T18:29:46.523Z,10.50
2019-02-18T18:33:52.268Z,12.83
2019-02-18T18:37:57.823Z,12.47
2019-02-18T18:42:03.381Z,18.27
2019-02-18T18:46:08.927Z,14.23
2019-02-18T18:50:16.964Z,14.83
2019-02-18T18:54:22.720Z,16.17
2019-02-18T18:58:28.147Z,12.40
2019-02-18T19:02:33.544Z,14.83
2019-02-18T19:06:38.905Z,14.73
2019-02-18T19:10:44.311Z,13.53
2019-02-18T19:14:49.761Z,17.77
2019-02-18T19:18:55.197Z,19.77
2019-02-18T19:23:01.657Z,17.10
2019-02-18T19:27:07.070Z,18.67
2019-02-18T19:31:12.604Z,20.80
2019-02-18T19:35:18.375Z,22.87
2019-02-18T19:39:23.806Z,20.17
2019-02-18T19:43:29.187Z,23.03
2019-02-18T19:47:35.032Z,27.17
2019-02-18T19:51:40.503Z,25.20
2019-02-18T19:55:46.061Z,25.90
2019-02-18T19:59:51.530Z,20.03
2019-02-18T20:03:57.361Z,17.90
2019-02-18T20:08:02.812Z,28.20
2019-02-18T20:12:08.221Z,18.17
2019-02-18T20:16:13.643Z,21.47
2019-02-18T20:20:19.021Z,21.97
2019-02-18T20:24:24.447Z,16.47
2019-02-18T20:28:29.877Z,19.00
2019-02-18T20:32:35.356Z,19.50
2019-02-18T20:36:41.891Z,17.53
2019-02-18T20:40:47.883Z,19.13
2019-02-18T20:44:53.226Z,18.80
2019-02-18T20:48:58.684Z,17.50
2019-02-18T20:53:04.122Z,19.23
2019-02-18T20:57:09.508Z,18.27
2019-02-18T21:01:14.867Z,15.50
2019-02-18T21:05:20.665Z,17.23
2019-02-18T21:09:26.132Z,15.17
2019-02-18T21:13:31.610Z,17.07
2019-02-18T21:17:37.389Z,17.10
2019-02-18T21:21:43.159Z,20.83
2019-02-18T21:25:48.512Z,24.87
2019-02-18T21:29:54.017Z,18.77
2019-02-18T21:33:59.485Z,18.13
2019-02-18T21:38:04.965Z,18.37
2019-02-18T21:42:12.432Z,21.10
2019-02-18T21:46:17.881Z,19.60
2019-02-18T21:50:23.341Z,21.63
2019-02-18T21:54:28.805Z,15.13
2019-02-18T21:58:34.501Z,15.47
2019-02-18T22:02:40.171Z,16.87
2019-02-18T22:06:45.619Z,18.93
2019-02-18T22:10:51.050Z,19.33
2019-02-18T22:14:56.867Z,13.53
2019-02-18T22:19:02.196Z,19.83
2019-02-18T22:23:07.655Z,20.17
2019-02-18T22:27:13.381Z,17.03
2019-02-18T22:31:18.834Z,21.23
2019-02-18T22:35:24.208Z,20.47
2019-02-18T22:39:29.555Z,20.33
2019-02-18T22:43:34.982Z,19.07
2019-02-18T22:47:40.677Z,15.67
2019-02-18T22:51:46.131Z,22.37
2019-02-18T22:55:51.497Z,19.57
2019-02-18T22:59:57.201Z,19.63
2019-02-18T23:04:02.706Z,18.50
2019-02-18T23:08:08.143Z,16.07
2019-02-18T23:12:13.478Z,20.13
2019-02-18T23:16:19.249Z,18.90
2019-02-18T23:20:24.670Z,16.83
2019-02-18T23:24:30.461Z,16.53
2019-02-18T23:28:35.817Z,15.30
2019-02-18T23:32:41.440Z,16.03
2019-02-18T23:36:47.241Z,15.37
2019-02-18T23:40:52.597Z,16.90
2019-02-18T23:44:59.481Z,20.73
2019-02-18T23:49:05.101Z,17.80
2019-02-18T23:53:10.887Z,19.60
2019-02-18T23:57:16.067Z,17.40
